Kristian Strandberg

Olheiro-Chefe - Haugesund
23 Out 2027
Sábado
Processo

Personalidade

Adaptabilidade (8) Ambição (6) Controvérsia (9) Lealdade (1) Pressão (7) Profissionalismo (10) Espírito Esportivo (10) Temperamento (11)

Perfil

Estilo de Treinamento Democrático
Licença Continental Pro
Determinação 8
Gestão de Pessoas 5
Motivação 8
Disciplina 3
Satisfação no Trabalho
100%
Fadiga
0%
Função Olheiro-Chefe
Salário 42.8K p/s
Contrato 14.03.2029

Desempenho

Comportamento Bom
Eficácia do Treinamento
40%
Desenvolvimento do Jogador
30%
Prevenção de Lesões
20%
Implementação Tática
30%

Eventos Recentes

Participou de uma reunião de recrutamento agora
Participou de uma reunião de recrutamento 7d atrás
Recomendou um alvo de transferência 7d atrás
Recomendou um alvo de transferência 7d atrás
Participou de uma reunião de recrutamento 14d atrás
Recomendou um alvo de transferência 14d atrás
Recomendou um alvo de transferência 14d atrás
Recomendou um alvo de transferência 21d atrás

Monitorando agora

73
Jogador Clube Status Habilidade Confiança Observado Última observação Último voto
Fillip Jenssen Riise Stabaek Ativo 89 / 105 55% 1 02.08.2027 -
Richard Ferrington Stabaek Ativo 93 / 114 55% 1 26.07.2027 -
Patrick Mensah Plaza Colonia Negociando 91 / 91 66% 1 16.07.2027 -
Aleksander Borgersen Rosenborg Ativo 89 / 95 55% 1 15.02.2027 -
Konstantin Tyukavin Arsenal Ativo 133 / 134 67% 1 01.02.2027 Aprovar
Ilja Zhbanov Rostov Negociando 90 / 94 66% 1 01.02.2027 Aprovar
Dario Vizinger NK Maribor Negociando 111 / 111 66% 1 01.02.2027 -
Mduduzi Shabalala Kaizer Chiefs Ativo 99 / 107 40% 3 30.01.2027 -
Luca Moro Padova Ativo 136 / 109 40% 1 30.01.2027 -
Armstrong Oko-Flex Levski Ativo 112 / 107 40% 3 26.01.2027 -
Filippo Distefano Empoli Ativo 103 / 129 40% 1 26.01.2027 -
Dilan Ortíz Ufa Ativo 103 / 103 40% 2 25.01.2027 -
Matej Trusa DAC Dunajska Streda Ativo 115 / 107 40% 2 23.01.2027 -
Jalen Blesa Rio Ave Ativo 126 / 119 40% 1 21.01.2027 -
Etiosa Ighodaro Kaizer Chiefs Ativo 129 / 126 40% 1 21.01.2027 -
Martin Petkov Botev Vratsa Ativo 89 / 97 40% 1 20.01.2027 -
Jan Hubocan Ferencvaros Ativo 138 / 124 40% 1 19.01.2027 -
Solly Khunyedi Bloemfontein Celtic Ativo 116 / 119 40% 3 18.01.2027 -
Erik Botheim Viking Ativo 123 / 117 40% 2 17.01.2027 -
Monty Batlhabane Polokwane City Ativo 77 / 94 40% 1 17.01.2027 -
Sindre Walle Egeli Nottingham Forest Ativo 114 / 154 40% 2 16.01.2027 -
Maxim Kutovoy Salyut Ativo 86 / 72 40% 1 16.01.2027 -
Jere Vrcić Birkirkara Ativo 97 / 84 40% 2 13.01.2027 -
Paul Ngongo Aalesund Ativo 113 / 120 40% 3 12.01.2027 -
Celso Sidney Cherno More Ativo 93 / 105 40% 1 11.01.2027 -
Jonathan Okoronkwo Torpedo Moscow Ativo 97 / 96 40% 3 10.01.2027 -
Jerome Karelse Golden Arrows Ativo 97 / 120 40% 1 10.01.2027 -
Gorka Gorosabel Real Sociedad Ativo 109 / 125 40% 1 10.01.2027 -
Maicon Levski Ativo 115 / 130 40% 1 10.01.2027 -
Elias Hoff Melkersen Stromsgodset Ativo 101 / 129 40% 4 08.01.2027 -
Bahlul Mammadov Inter Ativo 102 / 100 40% 3 06.01.2027 -
Paul Mbong Floriana Ativo 96 / 111 40% 2 05.01.2027 -
Prince Ukachukwu Victoria United Ativo 94 / 113 40% 1 02.01.2027 -
Jeffrey Adjei Wa All Stars Ativo 94 / 74 40% 1 01.01.2027 -
Simen Bolkan Nordli Rosenborg Ativo 123 / 129 40% 3 31.12.2026 -
Zakaria Mugeese Odd Ativo 118 / 111 40% 2 31.12.2026 -
Simon Ramabu Polokwane City Ativo 94 / 117 40% 1 31.12.2026 -
Sibusiso Tshabalala Polokwane City Ativo 92 / 106 40% 1 29.12.2026 -
Ammar Ramadan DAC Dunajska Streda Ativo 136 / 127 40% 4 28.12.2026 -
Tshepang Moremi Orlando Pirates Ativo 106 / 131 40% 1 28.12.2026 -
Camilo Durán Bloemfontein Celtic Ativo 134 / 135 40% 2 27.12.2026 -
Martins Júnior Zira Ativo 126 / 97 40% 1 27.12.2026 -
Nikolaj Möller Sandefjord Ativo 92 / 90 40% 2 22.12.2026 -
Brice Ambina Valerenga Ativo 130 / 116 40% 1 22.12.2026 -
Iker Pozo Rodina Ativo 118 / 129 40% 1 22.12.2026 -
Thabang Matuludi Polokwane City Ativo 112 / 123 40% 1 21.12.2026 -
Reda Khadra Qarabag Ativo 116 / 139 40% 1 20.12.2026 -
Relebohile Mofokeng Orlando Pirates Ativo 107 / 105 40% 1 20.12.2026 -
Brayan Gil Baltika Ativo 114 / 118 40% 3 16.12.2026 -
Suleiman Camara Slovan Bratislava Ativo 127 / 134 40% 3 14.12.2026 -
Álvaro Carreras Real Madrid Ativo 146 / 131 40% 2 14.12.2026 -
Dennis Gjengaar Valerenga Ativo 99 / 115 40% 3 12.12.2026 -
David Edvardsson Tromso Ativo 111 / 116 40% 1 12.12.2026 -
Sandi Elsnik NK Domzale Ativo 97 / 98 40% 1 05.12.2026 -
Danila Shilov Dinamo Stavropol Ativo 106 / 102 40% 1 05.12.2026 -
Isaac Matondo Koper Ativo 107 / 116 40% 1 03.12.2026 -
Xavier Biscayzacú Sporting CP Ativo 114 / 133 40% 2 02.12.2026 -
Mathias Sauer Sandefjord Ativo 92 / 105 40% 3 01.12.2026 -
Wandile Duba Maritzburg United Ativo 106 / 86 40% 1 27.11.2026 -
Leandro Godoy CSKA Sofia Ativo 112 / 126 40% 1 25.11.2026 -
Ola Brynhildsen Bodo/Glimt Ativo 119 / 127 40% 1 22.11.2026 -
Sunday Megwo Abia Warriors Ativo 89 / 116 40% 1 21.11.2026 -
Tio Cipot NK Maribor Ativo 115 / 107 40% 1 21.11.2026 -
Odin Bjørtuft Bodo/Glimt Ativo 144 / 132 40% 1 19.11.2026 -
Milán Tóth Vasas Ativo 104 / 113 40% 1 16.11.2026 -
Sturla Ottesen Lillestrom Ativo 122 / 106 40% 1 15.11.2026 -
Hinrik Harðarson Odd Ativo 85 / 98 40% 1 15.11.2026 -
Bojan Radulović Huddersfield Town Ativo 128 / 92 40% 1 13.11.2026 -
Joe Bell Viking Ativo 128 / 139 40% 2 09.11.2026 -
Krisztofer Horváth Ujpest Ativo 113 / 112 40% 1 04.11.2026 -
Magnus Lankhof Dahlby Stabaek Ativo 97 / 116 40% 1 03.11.2026 -
Liel Abada Charlotte Football Club Ativo 118 / 132 40% 1 03.11.2026 -
Mariano Bracamonte Deportivo Riestra Ativo 137 / 113 40% 1 03.11.2026 -